Time,TemperatureF,DewpointF,PressureIn,WindDirection,WindDirectionDegrees,WindSpeedMPH,WindSpeedGustMPH,Humidity,HourlyPrecipIn,Conditions,Clouds,dailyrainin,SolarRadiationWatts/m^2,SoftwareType,DateUTC
2013-08-05 00:05:00,84.0,52.0,29.67,SSE,163,0.0,1.0,33,0.00,,,0.00,0,weatherlink.com 1.10,2013-08-05 06:05:00,
2013-08-05 00:20:00,84.1,52.0,29.66,SE,142,2.0,7.0,33,0.00,,,0.00,0,weatherlink.com 1.10,2013-08-05 06:20:00,
2013-08-05 00:35:00,83.7,51.0,29.66,SE,139,0.0,1.0,32,0.00,,,0.00,0,weatherlink.com 1.10,2013-08-05 06:35:00,
2013-08-05 00:50:00,83.7,52.0,29.67,SE,138,0.0,3.0,33,0.00,,,0.00,0,weatherlink.com 1.10,2013-08-05 06:50:00,
2013-08-05 01:05:00,83.7,52.0,29.66,SE,138,0.0,1.0,34,0.00,,,0.00,0,weatherlink.com 1.10,2013-08-05 07:05:00,
2013-08-05 01:20:00,84.9,50.0,29.66,SE,136,1.0,5.0,30,0.00,,,0.00,0,weatherlink.com 1.10,2013-08-05 07:20:00,
2013-08-05 01:36:00,84.2,51.0,29.66,SE,136,0.0,1.0,32,0.00,,,0.00,0,weatherlink.com 1.10,2013-08-05 07:36:00,
2013-08-05 01:51:00,83.4,51.0,29.66,SE,136,0.0,0.0,33,0.00,,,0.00,0,weatherlink.com 1.10,2013-08-05 07:51:00,
2013-08-05 02:06:00,82.7,51.0,29.66,SE,136,0.0,1.0,33,0.00,,,0.00,0,weatherlink.com 1.10,2013-08-05 08:06:00,
2013-08-05 02:20:00,82.9,50.0,29.66,SE,136,0.0,1.0,32,0.00,,,0.00,0,weatherlink.com 1.10,2013-08-05 08:20:00,
2013-08-05 02:35:00,82.4,51.0,29.67,SE,136,0.0,1.0,33,0.00,,,0.00,0,weatherlink.com 1.10,2013-08-05 08:35:00,
2013-08-05 02:51:00,81.2,50.0,29.67,SE,136,0.0,0.0,34,0.00,,,0.00,0,weatherlink.com 1.10,2013-08-05 08:51:00,
2013-08-05 03:06:00,80.2,51.0,29.68,SE,136,0.0,0.0,36,0.00,,,0.00,0,weatherlink.com 1.10,2013-08-05 09:06:00,
2013-08-05 03:21:00,80.3,51.0,29.69,SE,136,0.0,1.0,36,0.00,,,0.00,0,weatherlink.com 1.10,2013-08-05 09:21:00,
2013-08-05 03:36:00,80.2,52.0,29.69,SE,136,0.0,1.0,37,0.00,,,0.00,0,weatherlink.com 1.10,2013-08-05 09:36:00,
2013-08-05 03:51:00,79.7,53.0,29.69,SE,136,0.0,0.0,39,0.00,,,0.00,0,weatherlink.com 1.10,2013-08-05 09:51:00,
2013-08-05 04:06:00,79.3,55.0,29.68,SE,136,0.0,1.0,43,0.00,,,0.00,0,weatherlink.com 1.10,2013-08-05 10:06:00,
2013-08-05 04:21:00,78.8,57.0,29.68,SE,136,0.0,1.0,48,0.00,,,0.00,0,weatherlink.com 1.10,2013-08-05 10:21:00,
2013-08-05 04:36:00,78.5,59.0,29.68,SE,136,1.0,1.0,51,0.00,,,0.00,0,weatherlink.com 1.10,2013-08-05 10:36:00,
2013-08-05 06:06:00,-999.0,-99.9,29.70,SW,235,7.0,21.0,64,0.24,,,0.24,0,weatherlink.com 1.10,2013-08-05 12:06:00,
2013-08-05 06:21:00,73.6,63.0,29.70,SW,236,1.0,11.0,70,0.27,,,0.27,33,weatherlink.com 1.10,2013-08-05 12:21:00,
2013-08-05 06:51:00,73.0,63.0,29.71,WSW,241,0.0,3.0,71,0.28,,,0.28,84,weatherlink.com 1.10,2013-08-05 12:51:00,
2013-08-05 07:06:00,73.7,64.0,29.71,WSW,241,0.0,1.0,72,0.03,,,0.28,76,weatherlink.com 1.10,2013-08-05 13:06:00,
2013-08-05 07:21:00,74.8,64.0,29.72,WSW,241,0.0,1.0,70,0.01,,,0.28,137,weatherlink.com 1.10,2013-08-05 13:21:00,
2013-08-05 07:36:00,76.5,64.0,29.72,WSW,241,0.0,1.0,65,0.00,,,0.28,178,weatherlink.com 1.10,2013-08-05 13:36:00,
2013-08-05 07:51:00,78.0,64.0,29.72,WSW,241,0.0,4.0,62,0.00,,,0.28,218,weatherlink.com 1.10,2013-08-05 13:51:00,
2013-08-05 08:22:00,81.5,62.0,29.73,WSW,241,0.0,1.0,51,0.00,,,0.28,311,weatherlink.com 1.10,2013-08-05 14:22:00,
2013-08-05 08:37:00,82.6,60.0,29.73,WSW,251,0.0,6.0,47,0.00,,,0.28,362,weatherlink.com 1.10,2013-08-05 14:37:00,
2013-08-05 09:07:00,83.6,60.0,29.73,NW,305,0.0,9.0,45,0.00,,,0.28,461,weatherlink.com 1.10,2013-08-05 15:07:00,
2013-08-05 09:22:00,85.2,61.0,29.73,NW,304,0.0,5.0,44,0.00,,,0.28,506,weatherlink.com 1.10,2013-08-05 15:22:00,
2013-08-05 09:37:00,85.4,60.0,29.73,NW,306,0.0,2.0,43,0.00,,,0.28,554,weatherlink.com 1.10,2013-08-05 15:37:00,
2013-08-05 10:22:00,86.6,60.0,29.73,WNW,303,0.0,3.0,40,0.00,,,0.28,680,weatherlink.com 1.10,2013-08-05 16:22:00,
2013-08-05 10:37:00,86.1,60.0,29.73,WNW,283,0.0,7.0,42,0.00,,,0.28,710,weatherlink.com 1.10,2013-08-05 16:37:00,
2013-08-05 11:08:00,86.2,60.0,29.73,SW,227,0.0,8.0,41,0.00,,,0.28,775,weatherlink.com 1.10,2013-08-05 17:08:00,
2013-08-05 11:23:00,86.6,60.0,29.73,SW,223,2.0,6.0,41,0.00,,,0.28,803,weatherlink.com 1.10,2013-08-05 17:23:00,
2013-08-05 11:38:00,88.1,61.0,29.73,SW,219,0.0,4.0,40,0.00,,,0.28,830,weatherlink.com 1.10,2013-08-05 17:38:00,
2013-08-05 11:53:00,88.6,60.0,29.72,SW,223,0.0,7.0,38,0.00,,,0.28,854,weatherlink.com 1.10,2013-08-05 17:53:00,
2013-08-05 12:08:00,88.6,58.0,29.72,SW,227,4.0,8.0,36,0.00,,,0.28,875,weatherlink.com 1.10,2013-08-05 18:08:00,
2013-08-05 12:23:00,89.0,59.0,29.72,SW,232,9.0,9.0,37,0.00,,,0.28,895,weatherlink.com 1.10,2013-08-05 18:23:00,
2013-08-05 12:38:00,89.8,59.0,29.72,SW,233,1.0,6.0,35,0.00,,,0.28,909,weatherlink.com 1.10,2013-08-05 18:38:00,
2013-08-05 12:53:00,89.9,60.0,29.71,SW,227,1.0,7.0,36,0.00,,,0.28,912,weatherlink.com 1.10,2013-08-05 18:53:00,
2013-08-05 13:08:00,91.1,60.0,29.70,SW,228,1.0,11.0,35,0.00,,,0.28,916,weatherlink.com 1.10,2013-08-05 19:08:00,
2013-08-05 13:23:00,91.6,60.0,29.70,SW,229,3.0,8.0,35,0.00,,,0.28,916,weatherlink.com 1.10,2013-08-05 19:23:00,
2013-08-05 13:38:00,92.2,59.0,29.68,SW,228,3.0,6.0,33,0.00,,,0.28,909,weatherlink.com 1.10,2013-08-05 19:38:00,
2013-08-05 13:53:00,93.2,60.0,29.68,SW,231,0.0,4.0,33,0.00,,,0.28,907,weatherlink.com 1.10,2013-08-05 19:53:00,
2013-08-05 14:23:00,94.0,59.0,29.67,SW,234,2.0,7.0,31,0.00,,,0.28,874,weatherlink.com 1.10,2013-08-05 20:23:00,
2013-08-05 14:38:00,95.4,59.0,29.66,SW,233,2.0,5.0,30,0.00,,,0.28,860,weatherlink.com 1.10,2013-08-05 20:38:00,
2013-08-05 14:53:00,94.8,58.0,29.65,SW,228,1.0,11.0,29,0.00,,,0.28,837,weatherlink.com 1.10,2013-08-05 20:53:00,
2013-08-05 15:23:00,96.1,59.0,29.64,WSW,238,0.0,5.0,29,0.00,,,0.28,777,weatherlink.com 1.10,2013-08-05 21:23:00,
2013-08-05 15:38:00,97.3,58.0,29.64,WSW,239,2.0,7.0,27,0.00,,,0.28,749,weatherlink.com 1.10,2013-08-05 21:38:00,
2013-08-05 15:53:00,95.2,57.0,29.63,SSW,210,1.0,5.0,28,0.00,,,0.28,717,weatherlink.com 1.10,2013-08-05 21:53:00,
2013-08-05 16:08:00,97.1,58.0,29.64,SSW,206,3.0,7.0,27,0.00,,,0.28,696,weatherlink.com 1.10,2013-08-05 22:08:00,
2013-08-05 16:38:00,95.4,55.0,29.62,SSW,194,1.0,5.0,26,0.00,,,0.28,629,weatherlink.com 1.10,2013-08-05 22:38:00,
2013-08-05 16:53:00,96.2,54.0,29.62,SSW,195,1.0,9.0,24,0.00,,,0.28,536,weatherlink.com 1.10,2013-08-05 22:53:00,
2013-08-05 17:08:00,95.6,55.0,29.61,SSW,203,1.0,9.0,25,0.00,,,0.28,461,weatherlink.com 1.10,2013-08-05 23:08:00,
2013-08-05 17:23:00,95.8,54.0,29.60,SSW,209,3.0,8.0,24,0.00,,,0.28,309,weatherlink.com 1.10,2013-08-05 23:23:00,
2013-08-05 17:38:00,94.9,54.0,29.60,SW,225,5.0,11.0,25,0.00,,,0.28,109,weatherlink.com 1.10,2013-08-05 23:38:00,
2013-08-05 18:08:00,94.6,54.0,29.60,SSW,213,4.0,13.0,25,0.00,,,0.28,258,weatherlink.com 1.10,2013-08-06 00:08:00,
2013-08-05 18:23:00,94.2,55.0,29.60,SW,219,6.0,10.0,27,0.00,,,0.28,172,weatherlink.com 1.10,2013-08-06 00:23:00,
2013-08-05 18:53:00,92.9,55.0,29.60,SW,227,3.0,9.0,28,0.00,,,0.28,84,weatherlink.com 1.10,2013-08-06 00:53:00,
2013-08-05 19:08:00,92.3,55.0,29.60,SW,229,4.0,16.0,28,0.00,,,0.28,56,weatherlink.com 1.10,2013-08-06 01:08:00,
2013-08-05 19:24:00,91.8,55.0,29.60,SW,236,6.0,14.0,29,0.00,,,0.28,42,weatherlink.com 1.10,2013-08-06 01:24:00,
2013-08-05 19:39:00,91.5,55.0,29.60,SW,230,10.0,11.0,29,0.00,,,0.28,19,weatherlink.com 1.10,2013-08-06 01:39:00,
2013-08-05 19:54:00,90.8,56.0,29.61,SW,235,3.0,12.0,31,0.00,,,0.28,0,weatherlink.com 1.10,2013-08-06 01:54:00,
2013-08-05 20:09:00,90.4,56.0,29.61,SW,236,1.0,9.0,31,0.00,,,0.28,0,weatherlink.com 1.10,2013-08-06 02:09:00,
2013-08-05 21:09:00,88.1,57.0,29.64,WSW,240,1.0,10.0,35,0.00,,,0.28,0,weatherlink.com 1.10,2013-08-06 03:09:00,
2013-08-05 21:24:00,87.6,57.0,29.65,WSW,240,3.0,10.0,36,0.00,,,0.28,0,weatherlink.com 1.10,2013-08-06 03:24:00,
2013-08-05 21:39:00,87.0,58.0,29.66,WSW,240,2.0,9.0,37,0.00,,,0.28,0,weatherlink.com 1.10,2013-08-06 03:39:00,
2013-08-05 21:54:00,86.4,59.0,29.66,WSW,240,2.0,8.0,39,0.00,,,0.28,0,weatherlink.com 1.10,2013-08-06 03:54:00,
2013-08-05 22:09:00,85.7,59.0,29.67,WSW,237,0.0,6.0,40,0.00,,,0.28,0,weatherlink.com 1.10,2013-08-06 04:09:00,
2013-08-05 22:24:00,85.1,59.0,29.67,WSW,252,0.0,10.0,42,0.00,,,0.28,0,weatherlink.com 1.10,2013-08-06 04:24:00,
2013-08-05 22:39:00,84.4,60.0,29.67,WSW,253,0.0,5.0,44,0.00,,,0.28,0,weatherlink.com 1.10,2013-08-06 04:39:00,
2013-08-05 22:54:00,83.7,61.0,29.68,WSW,240,4.0,13.0,46,0.00,,,0.28,0,weatherlink.com 1.10,2013-08-06 04:54:00,
2013-08-05 23:09:00,83.0,61.0,29.68,WSW,247,4.0,9.0,47,0.00,,,0.28,0,weatherlink.com 1.10,2013-08-06 05:09:00,
2013-08-05 23:24:00,82.7,60.0,29.68,WSW,242,2.0,14.0,46,0.00,,,0.28,0,weatherlink.com 1.10,2013-08-06 05:24:00,
2013-08-05 23:39:00,82.2,59.0,29.69,SW,231,1.0,13.0,46,0.00,,,0.28,0,weatherlink.com 1.10,2013-08-06 05:39:00,
2013-08-05 23:54:00,81.6,58.0,29.70,SW,236,11.0,11.0,45,0.00,,,0.28,0,weatherlink.com 1.10,2013-08-06 05:54:00,